Time;durP1;ratioP1;P1;durP2;ratioP2;P2;SDS_P1;SDS_P2;PMS_P1;PMS_P2;Temp;Humidity;BMP_temperature;BMP_pressure;BME280_temperature;BME280_humidity;BME280_pressure;Samples;Min_cycle;Max_cycle;Signal;HPM_P1;HPM_P2
2023/10/19 00:01:57;;;;;;;4.60;3.60;;;13.30;99.90;;;;;;974260;145;27325;-76
2023/10/19 00:04:23;;;;;;;3.30;3.10;;;13.30;99.90;;;;;;942002;149;27305;-76
2023/10/19 00:06:50;;;;;;;3.70;3.40;;;13.30;99.90;;;;;;972646;146;27237;-76
2023/10/19 00:09:16;;;;;;;3.60;3.30;;;13.40;99.90;;;;;;971337;145;28324;-76
2023/10/19 00:11:42;;;;;;;3.52;3.33;;;13.40;99.90;;;;;;973457;146;27297;-76
2023/10/19 00:14:15;;;;;;;3.00;2.80;;;13.40;99.90;;;;;;972755;146;27329;-76
2023/10/19 00:16:36;;;;;;;3.43;3.13;;;13.40;99.90;;;;;;964355;145;27415;-76
2023/10/19 00:19:03;;;;;;;3.57;3.27;;;13.50;99.90;;;;;;953347;146;27847;-76
2023/10/19 00:21:29;;;;;;;3.57;3.27;;;13.50;99.90;;;;;;952456;147;27438;-76
2023/10/19 00:24:04;;;;;;;3.20;2.95;;;13.50;99.90;;;;;;953305;146;27465;-76
2023/10/19 00:26:29;;;;;;;3.30;3.00;;;13.50;99.90;;;;;;952472;149;27439;-76
2023/10/19 00:28:57;;;;;;;3.03;2.83;;;13.50;99.90;;;;;;950965;146;27328;-76
2023/10/19 00:31:21;;;;;;;3.73;2.80;;;13.50;99.90;;;;;;952087;147;27350;-76
2023/10/19 00:33:47;;;;;;;3.50;3.22;;;13.50;99.90;;;;;;954834;149;27370;-76
2023/10/19 00:36:14;;;;;;;3.22;2.98;;;13.60;99.90;;;;;;952312;146;27342;-76
2023/10/19 00:41:31;;;;;;;2.50;2.30;;;13.60;99.90;;;;;;963987;145;27413;-76
2023/10/19 00:44:02;;;;;;;3.07;2.83;;;13.60;99.90;;;;;;959900;145;27306;-76
2023/10/19 00:46:32;;;;;;;2.87;2.67;;;13.60;99.90;;;;;;959284;145;27358;-74
2023/10/19 00:48:58;;;;;;;3.85;2.98;;;13.60;99.90;;;;;;958332;145;27446;-77
2023/10/19 00:53:56;;;;;;;3.12;2.90;;;13.60;99.90;;;;;;946023;145;27295;-74
2023/10/19 00:56:23;;;;;;;4.00;2.95;;;13.60;99.90;;;;;;959011;148;27379;-76
2023/10/19 00:58:53;;;;;;;2.92;2.72;;;13.60;99.90;;;;;;946575;147;27402;-76
2023/10/19 01:01:15;;;;;;;3.10;2.90;;;13.60;99.90;;;;;;945837;147;27331;-76
2023/10/19 01:03:44;;;;;;;3.05;2.85;;;13.60;99.90;;;;;;946375;147;27347;-76
2023/10/19 01:06:12;;;;;;;2.83;2.63;;;13.60;99.90;;;;;;961208;145;27448;-76
2023/10/19 01:08:41;;;;;;;3.90;2.70;;;13.60;99.90;;;;;;959528;148;27383;-76
2023/10/19 01:11:04;;;;;;;3.10;2.80;;;13.60;99.90;;;;;;962330;145;27311;-76
2023/10/19 01:13:34;;;;;;;2.93;2.70;;;13.60;99.90;;;;;;948749;147;27334;-76
2023/10/19 01:15:58;;;;;;;3.40;3.10;;;13.60;99.90;;;;;;941296;148;27540;-76
2023/10/19 01:18:29;;;;;;;4.00;3.40;;;13.60;99.90;;;;;;964505;145;27634;-76
2023/10/19 01:20:55;;;;;;;3.80;3.40;;;13.70;99.90;;;;;;960638;145;27333;-76
2023/10/19 01:23:25;;;;;;;8.23;3.37;;;13.60;99.90;;;;;;965706;145;27393;-76
2023/10/19 01:29:01;;;;;;;3.77;3.47;;;13.70;99.90;;;;;;965141;145;27363;-76
2023/10/19 01:30:53;;;;;;;3.63;3.33;;;13.70;99.90;;;;;;956008;145;27664;-76
2023/10/19 01:33:20;;;;;;;4.07;3.77;;;13.70;99.90;;;;;;961273;145;27314;-76
2023/10/19 01:38:31;;;;;;;4.10;3.80;;;13.70;99.90;;;;;;964884;145;27346;-76
2023/10/19 01:41:01;;;;;;;4.42;4.03;;;13.80;99.90;;;;;;963267;145;27372;-76
2023/10/19 01:43:25;;;;;;;4.60;4.20;;;13.80;99.90;;;;;;958762;145;27327;-76
2023/10/19 01:45:54;;;;;;;4.60;4.28;;;13.80;99.90;;;;;;962067;145;27315;-76
2023/10/19 01:48:19;;;;;;;4.67;4.28;;;13.80;99.90;;;;;;961052;145;27813;-76
2023/10/19 01:50:44;;;;;;;4.47;4.17;;;13.90;99.90;;;;;;961248;145;27294;-76
2023/10/19 01:53:15;;;;;;;4.78;4.22;;;13.90;99.90;;;;;;960570;145;27334;-76
2023/10/19 01:55:40;;;;;;;5.22;4.83;;;13.90;99.90;;;;;;961702;145;27346;-76
2023/10/19 01:58:08;;;;;;;4.70;4.30;;;14.00;99.90;;;;;;960003;145;27381;-79
2023/10/19 02:00:37;;;;;;;5.27;4.23;;;13.90;99.90;;;;;;963717;145;27287;-79
2023/10/19 02:03:00;;;;;;;4.27;3.90;;;14.00;99.90;;;;;;959854;145;27426;-78
2023/10/19 02:05:33;;;;;;;4.67;4.28;;;14.00;99.90;;;;;;963160;145;27467;-79
2023/10/19 02:07:53;;;;;;;4.80;4.40;;;14.10;99.90;;;;;;961428;145;27330;-79
2023/10/19 02:10:19;;;;;;;4.28;3.98;;;14.10;99.90;;;;;;958052;145;27307;-79
2023/10/19 02:12:46;;;;;;;4.93;4.43;;;14.10;99.90;;;;;;962177;145;27336;-79
2023/10/19 02:15:13;;;;;;;3.85;3.55;;;14.10;99.90;;;;;;961606;145;27300;-78
2023/10/19 02:17:39;;;;;;;4.50;4.10;;;14.10;99.90;;;;;;961511;145;27318;-78
2023/10/19 02:20:12;;;;;;;3.67;3.45;;;14.10;99.90;;;;;;962973;145;27315;-78
2023/10/19 02:22:34;;;;;;;4.20;3.90;;;14.20;99.90;;;;;;960814;145;27313;-78
2023/10/19 02:24:59;;;;;;;4.30;3.90;;;14.20;99.90;;;;;;962749;145;27388;-79
2023/10/19 02:27:26;;;;;;;4.17;3.87;;;14.20;99.90;;;;;;962218;145;27423;-78
2023/10/19 02:29:52;;;;;;;4.20;3.87;;;14.20;99.90;;;;;;960747;145;27297;-77
2023/10/19 02:32:19;;;;;;;3.72;3.42;;;14.20;99.90;;;;;;962953;145;27338;-79
2023/10/19 02:34:45;;;;;;;3.77;3.47;;;14.30;99.90;;;;;;962767;145;27359;-75
2023/10/19 02:37:12;;;;;;;5.03;4.05;;;14.30;99.90;;;;;;962815;145;27412;-77
2023/10/19 02:39:39;;;;;;;4.40;4.00;;;14.30;99.90;;;;;;957990;145;27902;-78
2023/10/19 02:42:05;;;;;;;4.35;3.95;;;14.30;99.90;;;;;;959243;145;27447;-79
2023/10/19 02:44:32;;;;;;;4.10;3.72;;;14.30;99.90;;;;;;958103;146;28432;-79
2023/10/19 02:46:58;;;;;;;4.58;4.17;;;14.40;99.90;;;;;;957188;145;27893;-79
2023/10/19 02:49:25;;;;;;;4.17;3.85;;;14.40;99.90;;;;;;955425;146;27343;-79
2023/10/19 02:51:52;;;;;;;4.00;3.70;;;14.40;99.90;;;;;;954850;146;28385;-79
2023/10/19 02:54:24;;;;;;;4.17;3.87;;;14.40;99.90;;;;;;956237;146;27360;-78
2023/10/19 02:56:53;;;;;;;3.77;3.47;;;14.40;99.90;;;;;;958219;146;27363;-78
2023/10/19 02:59:22;;;;;;;4.15;3.80;;;14.50;99.90;;;;;;957666;146;27459;-79
2023/10/19 03:01:49;;;;;;;4.10;3.75;;;14.50;99.90;;;;;;956948;146;27287;-79
2023/10/19 03:04:15;;;;;;;4.10;3.80;;;14.50;99.90;;;;;;956542;145;27330;-78
2023/10/19 03:06:43;;;;;;;3.98;3.60;;;14.50;99.90;;;;;;958464;146;27480;-76
2023/10/19 03:11:54;;;;;;;4.28;3.85;;;14.60;99.90;;;;;;904225;156;27396;-76
2023/10/19 03:14:17;;;;;;;4.55;4.15;;;14.60;99.90;;;;;;938032;146;27360;-76
2023/10/19 03:16:43;;;;;;;4.10;3.80;;;14.60;99.90;;;;;;954789;146;27416;-75
2023/10/19 03:19:11;;;;;;;4.28;3.87;;;14.60;99.90;;;;;;957048;146;27436;-75
2023/10/19 03:21:43;;;;;;;4.42;4.05;;;14.60;99.90;;;;;;957232;145;27392;-76
2023/10/19 03:26:54;;;;;;;4.33;3.92;;;14.60;99.90;;;;;;957078;146;27403;-76
2023/10/19 03:29:31;;;;;;;4.03;3.70;;;14.60;99.90;;;;;;950528;146;27448;-75
2023/10/19 03:31:50;;;;;;;3.92;3.65;;;14.70;99.90;;;;;;951838;149;27395;-76
2023/10/19 03:34:19;;;;;;;4.53;4.15;;;14.70;99.90;;;;;;953545;146;27300;-76
2023/10/19 03:36:45;;;;;;;4.12;3.83;;;14.70;99.90;;;;;;950638;149;28474;-76
2023/10/19 03:39:15;;;;;;;4.00;3.70;;;14.70;99.90;;;;;;953050;146;27376;-76
2023/10/19 03:41:42;;;;;;;3.65;3.35;;;14.70;99.90;;;;;;954333;146;27500;-75
2023/10/19 03:44:13;;;;;;;4.20;3.87;;;14.70;99.90;;;;;;951536;146;27383;-76
2023/10/19 03:46:37;;;;;;;4.20;3.80;;;14.80;99.90;;;;;;951140;148;27252;-75
2023/10/19 03:49:10;;;;;;;3.92;3.62;;;14.80;99.90;;;;;;953155;146;27439;-76
2023/10/19 03:51:39;;;;;;;8.60;4.75;;;14.80;99.90;;;;;;952330;146;28063;-76
2023/10/19 03:53:58;;;;;;;4.62;4.20;;;14.80;99.90;;;;;;951766;146;27425;-76
2023/10/19 03:56:21;;;;;;;4.10;3.77;;;14.80;99.90;;;;;;950833;146;27413;-76
2023/10/19 03:58:50;;;;;;;3.98;3.67;;;14.80;99.90;;;;;;951113;146;27583;-76
2023/10/19 04:01:16;;;;;;;4.08;3.77;;;14.80;99.90;;;;;;952060;149;27309;-76
2023/10/19 04:03:41;;;;;;;5.10;4.60;;;14.80;99.90;;;;;;953735;146;27301;-76
2023/10/19 04:06:13;;;;;;;4.30;4.00;;;14.90;99.90;;;;;;953275;149;27346;-76
2023/10/19 04:08:37;;;;;;;3.83;3.52;;;14.90;99.90;;;;;;953274;146;27290;-76
2023/10/19 04:11:21;;;;;;;4.22;3.85;;;14.90;99.90;;;;;;951737;148;27257;-76
2023/10/19 04:13:39;;;;;;;5.30;4.80;;;14.90;99.90;;;;;;952617;146;27375;-76
2023/10/19 04:16:09;;;;;;;4.53;4.17;;;14.90;99.90;;;;;;951146;149;27429;-75
2023/10/19 04:18:33;;;;;;;3.95;3.65;;;14.90;99.90;;;;;;951302;148;27485;-74
2023/10/19 04:20:59;;;;;;;4.67;4.28;;;14.90;99.90;;;;;;954137;146;27730;-76
2023/10/19 04:23:28;;;;;;;5.75;4.35;;;15.00;99.90;;;;;;953411;146;27385;-74
2023/10/19 04:25:58;;;;;;;5.30;3.90;;;15.00;99.90;;;;;;954041;146;27381;-74
2023/10/19 04:31:06;;;;;;;5.72;3.92;;;15.10;99.90;;;;;;905608;154;27541;-76
2023/10/19 04:33:33;;;;;;;4.50;4.10;;;15.10;99.90;;;;;;936030;148;27359;-76
2023/10/19 04:36:00;;;;;;;5.22;4.62;;;15.10;99.90;;;;;;952469;149;27315;-76
2023/10/19 04:38:25;;;;;;;4.20;3.83;;;15.10;99.90;;;;;;953756;146;27311;-77
2023/10/19 04:40:52;;;;;;;4.45;4.08;;;15.10;99.90;;;;;;949809;149;27302;-76
2023/10/19 04:43:21;;;;;;;9.58;4.37;;;15.10;99.90;;;;;;944932;147;27262;-76
2023/10/19 04:45:45;;;;;;;4.00;3.70;;;15.10;99.90;;;;;;942718;147;27446;-76
2023/10/19 04:48:12;;;;;;;5.08;4.58;;;15.10;99.90;;;;;;942824;147;27327;-78
2023/10/19 04:50:39;;;;;;;5.37;4.20;;;15.10;99.90;;;;;;942441;147;27369;-78
2023/10/19 04:53:05;;;;;;;4.75;4.35;;;15.10;99.90;;;;;;942539;148;27369;-77
2023/10/19 04:55:32;;;;;;;3.92;3.62;;;15.10;99.90;;;;;;940640;147;27369;-77
2023/10/19 04:57:58;;;;;;;4.10;3.80;;;15.10;99.90;;;;;;941614;147;27357;-78
2023/10/19 05:00:27;;;;;;;4.65;4.25;;;15.10;99.90;;;;;;943382;148;27350;-78
2023/10/19 05:02:51;;;;;;;3.72;3.42;;;15.10;99.90;;;;;;941625;150;27354;-78
2023/10/19 05:05:18;;;;;;;4.78;4.37;;;15.00;99.90;;;;;;941559;147;27411;-78
2023/10/19 05:07:44;;;;;;;4.70;4.30;;;15.00;99.90;;;;;;940951;150;27379;-77
2023/10/19 05:10:11;;;;;;;5.30;4.80;;;15.00;99.90;;;;;;941375;150;27342;-77
2023/10/19 05:12:38;;;;;;;5.10;4.70;;;15.00;99.90;;;;;;942156;147;27325;-79
2023/10/19 05:15:05;;;;;;;5.40;4.17;;;15.00;99.90;;;;;;941938;150;27347;-78
2023/10/19 05:17:31;;;;;;;4.83;4.42;;;15.00;99.90;;;;;;940735;147;27411;-78
2023/10/19 05:19:57;;;;;;;4.97;4.58;;;15.00;99.90;;;;;;941152;150;27370;-78
2023/10/19 05:22:29;;;;;;;5.03;4.53;;;15.00;99.90;;;;;;941872;147;27362;-76
2023/10/19 05:24:51;;;;;;;5.62;4.90;;;15.00;99.90;;;;;;939723;150;27455;-78
2023/10/19 05:27:17;;;;;;;5.20;4.80;;;15.00;99.90;;;;;;940598;147;27460;-78
2023/10/19 05:29:44;;;;;;;4.92;4.53;;;15.10;99.90;;;;;;943342;147;27346;-78
2023/10/19 05:32:10;;;;;;;4.80;4.40;;;15.10;99.90;;;;;;943771;147;27313;-76
2023/10/19 05:34:37;;;;;;;5.42;4.75;;;15.10;99.90;;;;;;941360;148;27384;-77
2023/10/19 05:37:05;;;;;;;4.37;4.08;;;15.10;99.90;;;;;;940305;150;27336;-78
2023/10/19 05:39:31;;;;;;;4.97;4.50;;;15.10;99.90;;;;;;942475;147;27337;-78
2023/10/19 05:42:00;;;;;;;4.85;4.45;;;15.10;99.90;;;;;;943840;147;27400;-76
2023/10/19 05:44:24;;;;;;;5.37;4.80;;;15.10;99.90;;;;;;941753;147;27442;-77
2023/10/19 05:46:50;;;;;;;4.78;4.35;;;15.10;99.90;;;;;;941601;150;27316;-75
2023/10/19 05:49:17;;;;;;;5.20;4.70;;;15.10;99.90;;;;;;940857;150;27369;-73
2023/10/19 05:51:44;;;;;;;5.83;5.25;;;15.10;99.90;;;;;;942792;150;27327;-74
2023/10/19 05:54:10;;;;;;;5.78;5.28;;;15.10;99.90;;;;;;940019;150;27322;-74
2023/10/19 05:56:36;;;;;;;5.17;4.47;;;15.10;99.90;;;;;;944225;147;27337;-77
2023/10/19 05:59:04;;;;;;;5.20;4.62;;;15.10;99.90;;;;;;941994;150;27253;-76
2023/10/19 06:01:29;;;;;;;5.42;4.95;;;15.10;99.90;;;;;;940466;150;27461;-76
2023/10/19 06:03:56;;;;;;;5.30;4.80;;;15.00;99.90;;;;;;943508;150;27321;-76
2023/10/19 06:06:23;;;;;;;5.08;4.67;;;15.00;99.90;;;;;;943705;150;27439;-76
2023/10/19 06:08:53;;;;;;;5.45;4.95;;;15.00;99.90;;;;;;943231;147;27266;-76
2023/10/19 06:11:18;;;;;;;5.03;4.55;;;15.00;99.90;;;;;;942110;150;27474;-77
2023/10/19 06:13:46;;;;;;;5.42;4.92;;;15.00;99.90;;;;;;941477;147;27289;-77
2023/10/19 06:16:14;;;;;;;6.47;4.67;;;15.00;99.90;;;;;;940766;149;27463;-77
2023/10/19 06:18:39;;;;;;;5.35;4.95;;;15.00;99.90;;;;;;942315;150;27284;-77
2023/10/19 06:21:06;;;;;;;6.05;5.55;;;15.10;99.90;;;;;;941706;150;27492;-77
2023/10/19 06:23:32;;;;;;;7.45;5.95;;;15.20;99.90;;;;;;942440;147;27398;-77
2023/10/19 06:26:03;;;;;;;5.42;4.83;;;15.40;99.90;;;;;;940629;150;27329;-77
2023/10/19 06:28:25;;;;;;;8.23;5.40;;;15.60;99.90;;;;;;943475;147;27303;-77
2023/10/19 06:30:52;;;;;;;5.80;5.22;;;15.80;99.90;;;;;;942432;147;27307;-77
2023/10/19 06:33:19;;;;;;;6.05;5.50;;;16.10;99.90;;;;;;942394;147;27300;-77
2023/10/19 06:35:45;;;;;;;5.50;5.10;;;16.30;99.90;;;;;;940620;147;27403;-77
2023/10/19 06:38:12;;;;;;;5.55;5.10;;;16.40;99.90;;;;;;940965;149;27332;-77
2023/10/19 06:40:38;;;;;;;5.37;4.95;;;16.50;99.90;;;;;;942329;147;27337;-77
2023/10/19 06:43:05;;;;;;;5.85;5.35;;;16.60;99.90;;;;;;946258;146;27317;-77
2023/10/19 06:45:32;;;;;;;5.28;4.78;;;16.60;99.90;;;;;;946944;148;27379;-77
2023/10/19 06:48:00;;;;;;;6.30;5.80;;;16.60;99.90;;;;;;947400;146;27430;-77
2023/10/19 06:50:25;;;;;;;5.72;5.25;;;16.60;99.90;;;;;;947809;148;27324;-77
2023/10/19 06:52:51;;;;;;;5.33;4.83;;;16.60;99.90;;;;;;948780;146;27288;-77
2023/10/19 06:55:21;;;;;;;5.28;4.87;;;16.50;99.90;;;;;;947903;148;27390;-77
2023/10/19 06:57:45;;;;;;;6.55;5.00;;;16.50;99.90;;;;;;948189;146;27283;-78
2023/10/19 07:00:19;;;;;;;6.25;5.47;;;16.60;99.90;;;;;;950015;146;27393;-77
2023/10/19 07:02:43;;;;;;;6.12;5.53;;;16.60;99.90;;;;;;947424;146;27357;-77
2023/10/19 07:05:13;;;;;;;5.78;5.28;;;16.70;99.90;;;;;;948661;148;27250;-78
2023/10/19 07:07:41;;;;;;;6.12;5.55;;;16.80;99.90;;;;;;947348;148;27442;-77
2023/10/19 07:10:09;;;;;;;6.15;5.45;;;17.00;99.90;;;;;;947893;146;27320;-77
2023/10/19 07:12:35;;;;;;;5.95;5.35;;;17.20;99.90;;;;;;947973;146;27272;-76
2023/10/19 07:15:01;;;;;;;5.97;5.47;;;17.60;99.90;;;;;;949369;146;27352;-75
2023/10/19 07:17:28;;;;;;;5.47;5.08;;;18.10;99.90;;;;;;949482;146;27321;-75
2023/10/19 07:19:54;;;;;;;5.17;4.78;;;18.70;99.90;;;;;;950132;146;27363;-75
2023/10/19 07:22:22;;;;;;;5.60;4.62;;;19.30;99.90;;;;;;954535;146;27286;-76
2023/10/19 07:24:48;;;;;;;4.65;4.25;;;20.10;99.90;;;;;;952009;148;27252;-75
2023/10/19 07:27:18;;;;;;;4.65;4.10;;;20.80;99.90;;;;;;950454;148;27356;-77
2023/10/19 07:29:43;;;;;;;3.92;3.62;;;21.70;99.90;;;;;;951858;146;27333;-75
2023/10/19 07:32:11;;;;;;;4.12;3.75;;;22.40;99.90;;;;;;953413;149;27323;-75
2023/10/19 07:34:34;;;;;;;4.00;3.67;;;23.20;99.90;;;;;;953451;146;27355;-77
2023/10/19 07:37:01;;;;;;;3.62;3.33;;;23.80;99.90;;;;;;951384;147;27413;-75
2023/10/19 07:39:29;;;;;;;3.83;3.30;;;24.40;99.90;;;;;;950734;148;27405;-77
2023/10/19 07:41:54;;;;;;;3.72;3.40;;;24.80;99.90;;;;;;949021;146;27373;-74
2023/10/19 07:44:20;;;;;;;3.60;3.30;;;25.10;99.90;;;;;;944348;147;27364;-74
2023/10/19 07:46:47;;;;;;;3.42;3.12;;;25.20;99.90;;;;;;946845;148;27331;-75
2023/10/19 07:49:16;;;;;;;4.30;3.42;;;25.30;99.90;;;;;;944060;147;27451;-75
2023/10/19 07:51:46;;;;;;;3.65;3.35;;;25.30;99.90;;;;;;947108;147;27384;-76
2023/10/19 07:54:12;;;;;;;3.72;3.42;;;25.20;99.90;;;;;;943666;148;27385;-74
2023/10/19 07:56:39;;;;;;;3.80;3.08;;;25.10;99.00;;;;;;946606;147;27301;-74
2023/10/19 07:59:06;;;;;;;3.98;3.60;;;24.90;97.90;;;;;;945241;147;27426;-74
2023/10/19 08:01:32;;;;;;;4.62;3.72;;;24.70;96.60;;;;;;943728;147;27367;-74
2023/10/19 08:03:59;;;;;;;3.67;3.37;;;24.50;96.40;;;;;;944751;147;27796;-76
2023/10/19 08:06:26;;;;;;;3.42;3.22;;;24.30;95.90;;;;;;948523;147;27341;-76
2023/10/19 08:08:52;;;;;;;3.98;3.65;;;24.10;95.80;;;;;;945085;148;27426;-76
2023/10/19 08:11:18;;;;;;;3.87;3.47;;;23.90;95.90;;;;;;943876;149;27390;-76
2023/10/19 08:13:45;;;;;;;3.83;3.50;;;23.70;96.70;;;;;;946032;147;27425;-76
2023/10/19 08:16:12;;;;;;;3.67;3.37;;;23.60;97.00;;;;;;944104;148;27336;-75
2023/10/19 08:18:39;;;;;;;3.12;2.83;;;23.50;97.40;;;;;;943667;147;27249;-76
2023/10/19 08:21:05;;;;;;;3.77;3.47;;;23.40;97.30;;;;;;943899;150;27469;-76
2023/10/19 08:23:31;;;;;;;3.92;3.62;;;23.40;98.60;;;;;;945646;150;27345;-76
2023/10/19 08:25:59;;;;;;;4.00;3.42;;;23.40;99.00;;;;;;943923;147;27283;-76
2023/10/19 08:28:25;;;;;;;4.62;3.52;;;23.40;98.90;;;;;;947205;147;27345;-76
2023/10/19 08:30:57;;;;;;;3.85;3.40;;;23.50;99.40;;;;;;943510;150;27277;-76
2023/10/19 08:33:26;;;;;;;3.80;3.30;;;23.60;99.60;;;;;;947180;147;27460;-76
2023/10/19 08:35:56;;;;;;;3.85;3.17;;;23.60;98.60;;;;;;946554;149;27242;-76
2023/10/19 08:38:23;;;;;;;3.92;3.55;;;23.70;97.40;;;;;;944862;150;27302;-76
2023/10/19 08:40:49;;;;;;;3.65;3.05;;;23.70;96.10;;;;;;944349;150;27366;-76
2023/10/19 08:43:18;;;;;;;3.30;3.00;;;23.70;94.90;;;;;;948424;147;27393;-76
2023/10/19 08:45:42;;;;;;;3.40;3.05;;;23.60;94.10;;;;;;951434;146;27330;-76
2023/10/19 08:48:08;;;;;;;4.22;3.17;;;23.50;94.00;;;;;;951056;146;27353;-76
2023/10/19 08:50:35;;;;;;;3.27;2.98;;;23.30;94.30;;;;;;952637;146;27294;-76
2023/10/19 08:53:04;;;;;;;3.33;3.12;;;23.20;94.40;;;;;;950528;149;27353;-76
2023/10/19 08:55:31;;;;;;;3.55;3.25;;;23.00;94.40;;;;;;949912;146;27470;-76
2023/10/19 08:58:00;;;;;;;3.40;3.10;;;22.80;94.50;;;;;;951129;149;27326;-76
2023/10/19 09:00:27;;;;;;;4.20;3.17;;;22.70;95.00;;;;;;948566;149;27361;-77
2023/10/19 09:02:53;;;;;;;2.95;2.75;;;22.70;96.50;;;;;;950286;149;27659;-77
2023/10/19 09:05:22;;;;;;;3.90;2.85;;;22.70;99.50;;;;;;951482;146;27369;-77
2023/10/19 09:07:47;;;;;;;4.15;3.35;;;22.90;99.90;;;;;;951542;146;27322;-77
2023/10/19 09:10:16;;;;;;;2.65;2.45;;;23.30;99.90;;;;;;954015;149;27237;-77
2023/10/19 09:12:43;;;;;;;2.83;2.58;;;23.80;99.90;;;;;;950411;148;27326;-77
2023/10/19 09:15:24;;;;;;;2.80;2.60;;;24.30;99.90;;;;;;950739;149;27388;-77
2023/10/19 09:17:54;;;;;;;4.28;2.72;;;24.90;99.90;;;;;;936585;149;27367;-74
2023/10/19 09:20:27;;;;;;;4.75;2.70;;;25.50;99.90;;;;;;950949;146;27407;-74
2023/10/19 09:22:44;;;;;;;2.95;2.62;;;26.10;96.00;;;;;;949063;149;27437;-74
2023/10/19 09:25:10;;;;;;;2.42;2.22;;;26.40;94.20;;;;;;950395;149;27381;-74
2023/10/19 09:27:37;;;;;;;3.83;2.60;;;26.60;93.90;;;;;;951982;148;27414;-77
2023/10/19 09:30:03;;;;;;;2.60;2.10;;;26.80;94.20;;;;;;952299;146;27244;-77
2023/10/19 09:32:32;;;;;;;2.80;2.08;;;27.10;92.60;;;;;;950567;149;27399;-77
2023/10/19 09:34:57;;;;;;;2.98;2.33;;;27.30;90.00;;;;;;948778;149;27365;-77
2023/10/19 09:37:24;;;;;;;2.85;2.25;;;27.40;88.70;;;;;;951446;146;27306;-77
2023/10/19 09:39:50;;;;;;;3.25;2.70;;;27.40;85.70;;;;;;952808;146;27680;-77
2023/10/19 09:42:16;;;;;;;2.40;2.30;;;27.40;83.90;;;;;;951745;146;27348;-77
2023/10/19 09:44:43;;;;;;;2.70;2.50;;;27.40;82.60;;;;;;948550;147;27480;-77
2023/10/19 09:47:13;;;;;;;3.27;2.62;;;27.40;80.40;;;;;;944616;147;28330;-77
2023/10/19 09:49:39;;;;;;;2.75;2.55;;;27.20;77.80;;;;;;944368;147;27360;-77
2023/10/19 09:52:05;;;;;;;2.87;2.35;;;27.00;78.00;;;;;;943107;147;27764;-77
2023/10/19 09:54:35;;;;;;;2.60;2.40;;;26.70;77.90;;;;;;946895;147;27424;-77
2023/10/19 09:57:01;;;;;;;4.67;2.80;;;26.50;78.50;;;;;;943471;147;27422;-77
2023/10/19 09:59:30;;;;;;;2.30;2.10;;;26.30;80.00;;;;;;943718;147;27846;-77
2023/10/19 10:02:12;;;;;;;3.00;2.10;;;26.10;80.90;;;;;;944629;150;27378;-77
2023/10/19 10:04:35;;;;;;;2.95;2.75;;;26.00;81.20;;;;;;942379;148;27428;-77
2023/10/19 10:07:05;;;;;;;2.70;2.50;;;25.80;81.60;;;;;;944965;147;27428;-77
2023/10/19 10:09:29;;;;;;;2.45;2.20;;;25.70;81.80;;;;;;945081;149;27270;-77
2023/10/19 10:11:56;;;;;;;2.87;2.67;;;25.60;81.40;;;;;;943725;147;27363;-77
2023/10/19 10:14:32;;;;;;;2.70;2.33;;;25.50;81.80;;;;;;944607;147;27234;-76
2023/10/19 10:17:03;;;;;;;2.33;2.12;;;25.40;82.80;;;;;;943468;147;27385;-76
2023/10/19 10:19:29;;;;;;;2.02;1.92;;;25.40;84.60;;;;;;943572;147;27369;-76
2023/10/19 10:22:20;;;;;;;2.60;2.25;;;25.40;85.30;;;;;;943288;147;27341;-76
2023/10/19 10:24:35;;;;;;;1.87;1.77;;;25.40;85.00;;;;;;942290;147;27492;-77
2023/10/19 10:27:03;;;;;;;3.08;1.82;;;25.50;85.20;;;;;;944182;147;27287;-76
2023/10/19 10:29:29;;;;;;;3.10;2.20;;;25.50;84.70;;;;;;943602;147;27443;-76
2023/10/19 10:31:54;;;;;;;3.30;2.00;;;25.50;84.20;;;;;;944894;147;27419;-76
2023/10/19 10:34:45;;;;;;;3.85;2.02;;;25.50;84.20;;;;;;944357;147;27309;-76
2023/10/19 10:37:08;;;;;;;2.17;1.65;;;25.50;83.90;;;;;;944542;147;27299;-77
2023/10/19 10:39:38;;;;;;;2.17;2.02;;;25.50;84.50;;;;;;944439;148;27291;-77
2023/10/19 10:42:05;;;;;;;2.92;2.10;;;25.50;84.40;;;;;;944360;148;27356;-77
2023/10/19 10:44:39;;;;;;;2.33;1.90;;;25.50;84.20;;;;;;944529;147;27658;-77
2023/10/19 10:47:03;;;;;;;2.50;1.67;;;25.50;84.40;;;;;;942855;147;27327;-77
2023/10/19 10:49:30;;;;;;;2.15;1.95;;;25.50;84.20;;;;;;943841;147;27335;-77
2023/10/19 10:51:57;;;;;;;4.85;1.90;;;25.50;83.80;;;;;;945531;148;27395;-77
2023/10/19 10:54:23;;;;;;;3.87;1.92;;;25.50;83.50;;;;;;946358;149;27446;-77
2023/10/19 10:56:50;;;;;;;4.78;2.50;;;25.50;82.60;;;;;;944933;148;27450;-77
2023/10/19 10:59:17;;;;;;;3.40;1.80;;;25.50;82.50;;;;;;944931;149;27285;-77
2023/10/19 11:01:43;;;;;;;3.05;1.42;;;25.50;83.60;;;;;;944201;147;27318;-77
2023/10/19 11:04:10;;;;;;;1.30;1.25;;;25.50;84.10;;;;;;944204;147;27333;-77
2023/10/19 11:06:49;;;;;;;1.75;1.65;;;25.50;84.80;;;;;;945987;150;27271;-77
2023/10/19 11:09:24;;;;;;;3.55;1.70;;;25.50;85.50;;;;;;945300;147;27368;-77
2023/10/19 11:11:41;;;;;;;2.08;1.60;;;25.50;86.00;;;;;;946465;149;27436;-77
2023/10/19 11:14:13;;;;;;;1.80;1.70;;;25.60;86.60;;;;;;946067;147;27343;-77
2023/10/19 11:16:40;;;;;;;2.67;1.65;;;25.60;86.20;;;;;;945660;147;27502;-77
2023/10/19 11:19:07;;;;;;;2.42;1.67;;;25.70;85.40;;;;;;945791;147;27376;-77
2023/10/19 11:21:34;;;;;;;2.67;1.50;;;25.80;85.60;;;;;;944604;147;27374;-77
2023/10/19 11:24:00;;;;;;;2.77;1.70;;;25.80;85.80;;;;;;941598;147;27391;-77
2023/10/19 11:26:26;;;;;;;2.05;1.57;;;25.80;86.10;;;;;;945528;147;27435;-77
2023/10/19 11:29:04;;;;;;;3.77;1.52;;;25.90;86.30;;;;;;945603;147;27352;-77
2023/10/19 11:31:37;;;;;;;3.98;1.75;;;26.00;85.20;;;;;;945362;147;27399;-77
2023/10/19 11:34:01;;;;;;;2.35;1.82;;;26.10;84.40;;;;;;941851;147;27366;-77
2023/10/19 11:36:28;;;;;;;2.65;1.98;;;26.10;83.60;;;;;;944380;147;27384;-79
2023/10/19 11:38:54;;;;;;;5.15;1.95;;;26.10;83.00;;;;;;945295;147;27362;-80
2023/10/19 11:41:21;;;;;;;2.17;1.65;;;26.20;82.60;;;;;;944702;147;27307;-80
2023/10/19 11:43:47;;;;;;;2.30;2.10;;;26.20;81.70;;;;;;944722;147;27342;-76
2023/10/19 11:46:22;;;;;;;1.87;1.77;;;26.10;81.10;;;;;;946514;146;27405;-74
2023/10/19 11:48:43;;;;;;;2.95;1.50;;;26.00;80.40;;;;;;946069;146;27408;-75
2023/10/19 11:51:14;;;;;;;2.50;1.70;;;25.90;80.40;;;;;;951088;146;27461;-74
2023/10/19 11:53:36;;;;;;;2.12;1.92;;;25.90;79.70;;;;;;948643;146;28793;-74
2023/10/19 11:56:12;;;;;;;3.17;1.65;;;25.70;79.80;;;;;;950428;146;27430;-74
2023/10/19 11:58:40;;;;;;;1.70;1.40;;;25.70;80.10;;;;;;950864;148;27355;-74
2023/10/19 12:01:08;;;;;;;2.02;1.60;;;25.50;80.50;;;;;;948313;148;28829;-75
2023/10/19 12:03:31;;;;;;;3.22;1.30;;;25.50;80.30;;;;;;950935;149;27356;-74
2023/10/19 12:05:58;;;;;;;2.52;1.42;;;25.40;80.30;;;;;;952141;149;27281;-77
2023/10/19 12:08:25;;;;;;;3.42;1.70;;;25.30;80.90;;;;;;950296;148;27462;-77
2023/10/19 12:10:51;;;;;;;1.92;1.37;;;25.20;80.80;;;;;;952016;146;27438;-75
2023/10/19 12:13:18;;;;;;;3.40;1.60;;;25.20;81.30;;;;;;950932;146;27742;-75
2023/10/19 12:15:54;;;;;;;1.85;1.45;;;25.10;82.30;;;;;;950209;146;27365;-74
2023/10/19 12:18:20;;;;;;;1.72;1.27;;;25.10;82.60;;;;;;952504;149;27733;-74
2023/10/19 12:20:47;;;;;;;1.98;1.17;;;25.10;82.20;;;;;;950305;149;27340;-77
2023/10/19 12:23:13;;;;;;;4.58;1.70;;;25.10;81.80;;;;;;951280;149;27822;-77
2023/10/19 12:25:42;;;;;;;2.12;1.40;;;25.10;81.70;;;;;;950010;148;27309;-73
2023/10/19 12:28:07;;;;;;;2.17;1.37;;;25.10;81.00;;;;;;951615;149;27308;-76
2023/10/19 12:30:36;;;;;;;1.30;1.02;;;25.10;80.90;;;;;;953950;149;27345;-74
2023/10/19 12:33:07;;;;;;;7.12;2.02;;;25.00;80.40;;;;;;952822;149;27301;-77
2023/10/19 12:35:45;;;;;;;3.45;2.10;;;25.00;80.30;;;;;;949966;148;27274;-74
2023/10/19 12:38:16;;;;;;;2.83;1.47;;;25.00;80.40;;;;;;951943;149;27312;-74
2023/10/19 12:40:43;;;;;;;3.92;1.75;;;24.90;80.40;;;;;;948366;148;28170;-74
2023/10/19 12:43:10;;;;;;;1.87;1.40;;;24.80;80.90;;;;;;950398;146;27245;-74
2023/10/19 12:45:36;;;;;;;1.37;1.25;;;24.70;80.70;;;;;;953852;146;27385;-74
2023/10/19 12:48:02;;;;;;;2.62;1.50;;;24.60;80.50;;;;;;951620;149;27281;-76
2023/10/19 12:50:30;;;;;;;1.22;1.10;;;24.60;80.40;;;;;;950252;146;27282;-76
2023/10/19 12:52:55;;;;;;;8.60;2.52;;;24.50;80.80;;;;;;951463;149;27317;-76
2023/10/19 12:55:26;;;;;;;9.43;2.10;;;24.40;80.90;;;;;;952051;148;27310;-77
2023/10/19 12:57:50;;;;;;;6.33;1.70;;;24.30;81.10;;;;;;951686;146;27340;-76
2023/10/19 13:00:25;;;;;;;3.75;1.60;;;24.20;81.70;;;;;;949903;149;27249;-76
2023/10/19 13:02:51;;;;;;;2.65;1.45;;;24.10;82.20;;;;;;952574;149;27313;-76
2023/10/19 13:05:20;;;;;;;2.20;1.35;;;24.10;82.60;;;;;;949542;149;27274;-76
2023/10/19 13:07:46;;;;;;;2.05;1.32;;;24.00;83.40;;;;;;951043;149;27367;-76